AirNav   ProFlight Series 2 Aviation Headset
 
 1074 users online  

52MI Six C's Heliport
Oakland Township, Michigan, USA

GOING TO OAKLAND TOWNSHIP?


FAA INFORMATION EFFECTIVE 18 JUNE 2020

Location

FAA Identifier: 52MI
Lat/Long: 42-43-17.9600N 083-10-53.7100W
42-43.299333N 083-10.895167W
42.7216556,-83.1815861
(estimated)
Elevation: 1013 ft. / 309 m (estimated)
From city: 3 miles SE of OAKLAND TOWNSHIP, MI
Time zone: UTC -4 (UTC -5 during Standard Time)
Zip code: 48306

Heliport Operations

Heliport use: Private use. Permission required prior to landing
Activation date: 03/2014
Control tower: no
ARTCC: CLEVELAND CENTER
FSS: LANSING FLIGHT SERVICE STATION
Attendance: UNATNDD
Segmented circle: no

Heliport Communications

WX AWOS-3 at VLL (11 nm S): 119.475 (248-288-4649)
WX ASOS at PTK (11 nm W): 125.025 (248-886-8551)

Nearby radio navigation aids

VOR radial/distance  VOR name  Freq  Var
SVMr047/26.2SALEM VORTAC114.3003W
FNTr127/28.9FLINT VORTAC116.9006W
DXOr021/31.6DETROIT VOR/DME113.4006W

 
NDB name  Hdg/Dist  Freq  Var  ID
GROSSE ILE005/37.341907WRYS .-. -.-- ...

Heliport Services

Runway Information

Helipad H1

Dimensions: 20 x 20 ft. / 6 x 6 m
Surface: turf
Traffic pattern: leftleft

Heliport Ownership and Management from official FAA records

Ownership: Privately-owned
Owner: AVA AVIATION LLC
5200 COVENTRY LANE
ROCHESTER, MI 48306
Phone 248-703-5699
Manager: CHRIS CUKROWSKI
5200 COVENTRY LANE
ROCHESTER, MI 48306
Phone 248-703-5699

Additional Remarks

FOR CD CTC DETROIT APCH AT 800-499-8181.

Instrument Procedures

There are no published instrument procedures at 52MI.

Some nearby airports with instrument procedures:

D98 - Romeo State Airport (10 nm NE)
KVLL - Oakland/Troy Airport (11 nm S)
KPTK - Oakland County International Airport (11 nm W)
57D - Ray Community Airport (13 nm E)
KMTC - Selfridge Air National Guard Base (17 nm SE)
 
Loc | Ops | Rwys | IFR | FBO | Links
Com | Nav | Svcs | Stats | Notes
Aerial photo
No photo
 
Airport distance calculator
Flying to Six C's Heliport? Find the distance to fly.

From to 52MI

Sunrise and sunset
Times for 06-Jul-2020
 Local
(UTC-4)
 Zulu
(UTC)
Morning civil twilight05:2809:28
Sunrise06:0310:03
Sunset21:1201:12
Evening civil twilight21:4701:47

Current date and time
Zulu (UTC)  06-Jul-2020 23:53:09
Local (UTC-4)  06-Jul-2020 19:53:09
 
METAR
KVLL 
11nm S 
062335Z AUTO 24003KT 10SM CLR 32/17 A2999 RMK AO2 T03190174
KPTK 
11nm W 
062253Z 19007KT 10SM FEW070 SCT250 32/18 A2997 RMK AO2 SLP139 CB DSNT NE MOV E T03170183 $
KMTC 
17nm E 
062255Z 16007KT 10SM SCT075 BKN250 30/20 A2996 RMK AO2A LTG DSNT NW CB 22NW MOV E SLP146 T02990195 $
KDET 
21nm S 
062253Z 21004KT 10SM FEW120 31/18 A2996 RMK AO2 SLP142 T03060178
KD95 
21nm N 
062335Z AUTO 00000KT 10SM BKN060 BKN070 BKN090 30/20 A2999 RMK AO2 T02970197
TAF
KPTK 
11nm W 
061742Z 0618/0718 17008KT P6SM SCT060 TEMPO 0619/0622 6SM SHRA BKN050 FM070200 VRB02KT P6SM SCT090 FM070900 24004KT P6SM FEW070
KMTC 
17nm E 
061700Z 0617/0723 16009KT 9999 BKN060 QNH2990INS TEMPO 0718/0723 VRB06KT 9000 -TSRA FEW070CB TX33/0620Z TN19/0710Z
NOTAMs
Click for the latest NOTAMs
NOTAMs are issued by the DoD/FAA and will open in a separate window not controlled by AirNav.

 

 
 

Would you like to see your business listed on this page?

 If your business provides an interesting product or service to pilots, flight crews, aircraft, or users of the Six C's Heliport, you should consider listing it here.  To start the listing process, click on the button below
 
Add a business
 

Other Pages about Six C's Heliport

Update a link
 
Copyright © AirNav, LLC. All rights reserved. Privacy Policy  Contact